EED weather

Needles Airport
Needles, California, United States

Public forecast

Using degrees Fahrenheit for public forecast. Weather courtesy of forecast.io.

Current aviation weather report (METAR) for Needles Airport

Retrieved 2020/08/08 08:56 UTC (15 minutes ago):

KEED 080856Z AUTO 00000KT 10SM CLR 29/M11 A2983 RMK AO2 SLP066 T02941106 51007

Aviation forecast (TAF) for Needles Airport

Retrieved 2020/08/08 06:22 UTC (3 hours ago):

TAF KEED 080520Z 0806/0906 21009KT P6SM SKC FM081000 VRB05KT P6SM SKC FM082100 18012KT P6SM SKC FM090200 23007KT P6SM SKC